Time;durP1;ratioP1;P1;durP2;ratioP2;P2;SDS_P1;SDS_P2;PMS_P1;PMS_P2;Temp;Humidity;BMP_temperature;BMP_pressure;BME280_temperature;BME280_humidity;BME280_pressure;Samples;Min_cycle;Max_cycle;Signal;HPM_P1;HPM_P2
2022/06/05 00:00:17;;;;;;;24.83;15.52;;;10.50;99.90;;;;;;5047232;28;20549;-89
2022/06/05 00:03:00;;;;;;;26.88;15.60;;;10.50;99.90;;;;;;5081000;28;20594;-90
2022/06/05 00:05:35;;;;;;;26.65;15.70;;;10.50;99.90;;;;;;5082158;28;20123;-89
2022/06/05 00:08:17;;;;;;;28.92;15.38;;;10.50;99.90;;;;;;5064942;28;20109;-89
2022/06/05 00:10:57;;;;;;;29.38;15.05;;;10.50;99.90;;;;;;5061312;28;20497;-90
2022/06/05 00:13:28;;;;;;;28.45;15.40;;;10.40;99.90;;;;;;5088550;28;20039;-89
2022/06/05 00:15:53;;;;;;;27.05;15.38;;;10.40;99.90;;;;;;5092175;28;20480;-90
2022/06/05 00:18:19;;;;;;;26.60;15.40;;;10.30;99.90;;;;;;5050196;28;20059;-89
2022/06/05 00:20:45;;;;;;;29.58;15.40;;;10.40;99.90;;;;;;5051474;28;20126;-89
2022/06/05 00:23:12;;;;;;;28.33;14.73;;;10.40;99.90;;;;;;5087025;28;20405;-88
2022/06/05 00:25:51;;;;;;;26.85;14.85;;;10.40;99.90;;;;;;5080625;28;20076;-89
2022/06/05 00:28:36;;;;;;;23.15;14.98;;;10.50;99.90;;;;;;5066638;28;20047;-89
2022/06/05 00:31:28;;;;;;;25.52;15.98;;;10.40;99.90;;;;;;5075341;28;20047;-89
2022/06/05 00:33:54;;;;;;;25.15;14.77;;;10.50;99.90;;;;;;5068680;28;20047;-89
2022/06/05 00:36:37;;;;;;;26.33;14.98;;;10.40;99.90;;;;;;5075966;28;20054;-88
2022/06/05 00:39:15;;;;;;;30.83;14.68;;;10.50;99.90;;;;;;5069091;28;20051;-89
2022/06/05 00:41:58;;;;;;;29.08;15.57;;;10.40;99.90;;;;;;5064109;28;20105;-88
2022/06/05 00:44:37;;;;;;;25.65;15.00;;;10.50;99.90;;;;;;5061041;28;20048;-89
2022/06/05 00:47:04;;;;;;;29.27;15.82;;;10.50;99.90;;;;;;5092173;28;20047;-88
2022/06/05 00:49:38;;;;;;;25.55;15.88;;;10.40;99.90;;;;;;5077933;28;20079;-88
2022/06/05 00:52:06;;;;;;;28.88;15.77;;;10.40;99.90;;;;;;5087212;28;20044;-89
2022/06/05 00:54:31;;;;;;;28.10;16.60;;;10.40;99.90;;;;;;5086099;28;20101;-88
2022/06/05 00:56:57;;;;;;;28.58;16.75;;;10.50;99.90;;;;;;5092352;28;20048;-91
2022/06/05 00:59:23;;;;;;;26.85;15.73;;;10.40;99.90;;;;;;5057441;28;20052;-88
2022/06/05 01:01:51;;;;;;;31.58;16.05;;;10.40;99.90;;;;;;5074818;28;20055;-88
2022/06/05 01:04:18;;;;;;;26.33;15.45;;;10.40;99.90;;;;;;5074400;28;20115;-89
2022/06/05 01:06:44;;;;;;;25.88;14.70;;;10.50;99.90;;;;;;5091069;28;20136;-91
2022/06/05 01:09:09;;;;;;;26.38;15.02;;;10.40;99.90;;;;;;5043531;28;20081;-89
2022/06/05 01:11:56;;;;;;;26.30;14.10;;;10.40;99.90;;;;;;5044956;28;20477;-89
2022/06/05 01:14:31;;;;;;;27.40;13.88;;;10.40;99.90;;;;;;5091039;28;20047;-91
2022/06/05 01:17:15;;;;;;;26.23;13.23;;;10.40;99.90;;;;;;5061282;28;20485;-90
2022/06/05 01:20:16;;;;;;;22.60;13.38;;;10.40;99.90;;;;;;5091898;28;20048;-90
2022/06/05 01:23:16;;;;;;;25.15;13.70;;;10.50;99.90;;;;;;5052665;28;20127;-89
2022/06/05 01:26:09;;;;;;;21.27;12.85;;;10.40;99.90;;;;;;5079452;28;20050;-88
2022/06/05 01:28:41;;;;;;;35.20;14.48;;;10.50;99.90;;;;;;5077498;28;20442;-89
2022/06/05 01:31:18;;;;;;;26.90;14.73;;;10.50;99.90;;;;;;5069165;28;20096;-90
2022/06/05 01:34:03;;;;;;;27.38;14.90;;;10.40;99.90;;;;;;5067380;28;20075;-89
2022/06/05 01:36:36;;;;;;;25.75;13.90;;;10.50;99.90;;;;;;5090370;28;20048;-89
2022/06/05 01:39:09;;;;;;;26.20;13.90;;;10.50;99.90;;;;;;5061141;28;20047;-89
2022/06/05 01:41:43;;;;;;;24.27;14.13;;;10.40;99.90;;;;;;5085924;28;20043;-89
2022/06/05 01:44:14;;;;;;;24.88;14.90;;;10.50;99.90;;;;;;5086457;28;20040;-90
2022/06/05 01:46:40;;;;;;;24.73;13.75;;;10.50;99.90;;;;;;5076220;28;20088;-91
2022/06/05 01:49:17;;;;;;;22.73;13.18;;;10.40;99.90;;;;;;5080369;28;20039;-92
2022/06/05 01:51:56;;;;;;;27.38;13.52;;;10.50;99.90;;;;;;5080310;28;20083;-90
2022/06/05 01:54:46;;;;;;;26.55;13.45;;;10.50;99.90;;;;;;5080022;28;20036;-88
2022/06/05 01:57:14;;;;;;;22.70;13.88;;;10.50;99.90;;;;;;5043134;28;20378;-90
2022/06/05 02:00:15;;;;;;;23.73;13.30;;;10.50;99.90;;;;;;5061904;28;20377;-90
2022/06/05 02:03:30;;;;;;;27.08;13.70;;;10.50;99.90;;;;;;5063113;28;20085;-90
2022/06/05 02:06:03;;;;;;;19.00;13.00;;;10.50;99.90;;;;;;5082438;28;20052;-89
2022/06/05 02:08:37;;;;;;;23.70;13.75;;;10.40;99.90;;;;;;5075542;28;20059;-88
2022/06/05 02:11:12;;;;;;;26.42;14.13;;;10.50;99.90;;;;;;5088149;28;20473;-88
2022/06/05 02:13:37;;;;;;;28.08;13.98;;;10.50;99.90;;;;;;5065576;28;20123;-89
2022/06/05 02:16:03;;;;;;;25.02;13.63;;;10.50;99.90;;;;;;5056434;28;20484;-89
2022/06/05 02:18:30;;;;;;;26.33;13.63;;;10.50;99.90;;;;;;5051936;28;20630;-89
2022/06/05 02:20:57;;;;;;;24.88;14.02;;;10.60;99.90;;;;;;5069132;28;20169;-89
2022/06/05 02:23:27;;;;;;;27.33;14.32;;;10.60;99.90;;;;;;5068057;28;20130;-89
2022/06/05 02:25:54;;;;;;;27.75;14.70;;;10.50;99.90;;;;;;5090867;28;20077;-89
2022/06/05 02:28:21;;;;;;;25.35;14.38;;;10.60;99.90;;;;;;5093453;28;20161;-90
2022/06/05 02:31:23;;;;;;;25.23;14.55;;;10.50;99.90;;;;;;5045518;28;20515;-89
2022/06/05 02:34:08;;;;;;;27.00;14.45;;;10.60;99.90;;;;;;5071481;28;20146;-89
2022/06/05 02:36:39;;;;;;;27.63;15.10;;;10.60;99.90;;;;;;5068835;28;20067;-89
2022/06/05 02:39:21;;;;;;;26.95;14.05;;;10.60;99.90;;;;;;5089627;28;20036;-88
2022/06/05 02:42:15;;;;;;;24.70;14.02;;;10.60;99.90;;;;;;5091268;28;20044;-89
2022/06/05 02:44:40;;;;;;;27.85;16.00;;;10.60;99.90;;;;;;5076760;28;20047;-89
2022/06/05 02:47:21;;;;;;;29.77;15.18;;;10.60;99.90;;;;;;5092328;28;20040;-89
2022/06/05 02:50:01;;;;;;;24.55;15.30;;;10.70;99.90;;;;;;5073723;28;20580;-89
2022/06/05 02:52:30;;;;;;;28.58;15.38;;;10.60;99.90;;;;;;5084158;28;20052;-89
2022/06/05 02:55:01;;;;;;;27.55;15.70;;;10.60;99.90;;;;;;5069566;28;20051;-89
2022/06/05 02:57:27;;;;;;;28.13;15.82;;;10.60;99.90;;;;;;5093445;28;20040;-88
2022/06/05 02:59:53;;;;;;;25.95;15.68;;;10.70;99.90;;;;;;5056779;28;20094;-88
2022/06/05 03:05:04;;;;;;;28.98;16.02;;;10.70;99.90;;;;;;5060941;28;20059;-89
2022/06/05 03:07:29;;;;;;;27.25;15.60;;;10.70;99.90;;;;;;5057200;28;20052;-89
2022/06/05 03:09:55;;;;;;;28.67;16.45;;;10.80;99.90;;;;;;5065906;28;20043;-88
2022/06/05 03:12:21;;;;;;;29.73;16.08;;;10.70;99.90;;;;;;5088481;28;20047;-89
2022/06/05 03:14:48;;;;;;;33.40;16.65;;;10.80;99.90;;;;;;5053745;28;20467;-92
2022/06/05 03:17:14;;;;;;;29.42;16.83;;;10.80;99.90;;;;;;5060370;28;20515;-89
2022/06/05 03:19:41;;;;;;;27.20;16.27;;;10.80;99.90;;;;;;5050650;28;20048;-89
2022/06/05 03:22:07;;;;;;;33.03;17.55;;;10.80;99.90;;;;;;5044266;28;20473;-89
2022/06/05 03:24:32;;;;;;;30.05;16.63;;;10.80;99.90;;;;;;5069743;28;20058;-88
2022/06/05 03:27:00;;;;;;;30.55;16.10;;;10.90;99.90;;;;;;5068543;28;20116;-89
2022/06/05 03:29:26;;;;;;;30.80;16.80;;;10.90;99.90;;;;;;5062698;28;20427;-88
2022/06/05 03:31:52;;;;;;;28.65;16.20;;;10.90;99.90;;;;;;5071029;28;20042;-87
2022/06/05 03:34:17;;;;;;;26.45;16.13;;;10.90;99.90;;;;;;5058731;28;20036;-88
2022/06/05 03:36:46;;;;;;;30.30;16.38;;;11.00;99.90;;;;;;5070306;28;20043;-89
2022/06/05 03:39:12;;;;;;;30.30;16.40;;;11.10;99.90;;;;;;5060554;28;20454;-88
2022/06/05 03:41:37;;;;;;;28.17;16.77;;;11.00;99.90;;;;;;5060648;28;20043;-88
2022/06/05 03:44:03;;;;;;;30.40;16.38;;;11.00;99.90;;;;;;5076278;28;20054;-88
2022/06/05 03:46:29;;;;;;;28.52;16.63;;;11.10;99.90;;;;;;5065401;28;20040;-87
2022/06/05 03:48:55;;;;;;;25.73;15.95;;;11.10;99.90;;;;;;5090389;28;20047;-87
2022/06/05 03:51:22;;;;;;;29.90;16.42;;;11.10;99.90;;;;;;5059618;28;20044;-88
2022/06/05 03:53:49;;;;;;;32.70;16.30;;;11.10;99.90;;;;;;5089636;28;20260;-88
2022/06/05 03:56:21;;;;;;;28.48;17.33;;;11.10;99.90;;;;;;5071246;28;20533;-88
2022/06/05 03:58:47;;;;;;;30.50;17.40;;;11.20;99.90;;;;;;5064022;28;20531;-88
2022/06/05 04:01:16;;;;;;;28.20;16.35;;;11.10;99.90;;;;;;5072413;28;20048;-88
2022/06/05 04:03:42;;;;;;;29.35;16.88;;;11.10;99.90;;;;;;5062162;28;20445;-88
2022/06/05 04:06:09;;;;;;;28.08;16.10;;;11.20;99.90;;;;;;5060270;28;20047;-87
2022/06/05 04:08:36;;;;;;;26.40;15.63;;;11.20;99.90;;;;;;5081569;28;20052;-88
2022/06/05 04:11:12;;;;;;;30.38;16.38;;;11.20;99.90;;;;;;5085304;28;20058;-88
2022/06/05 04:13:38;;;;;;;26.05;15.95;;;11.20;99.90;;;;;;5088802;28;20051;-89
2022/06/05 04:16:19;;;;;;;28.63;15.77;;;11.20;99.90;;;;;;5042664;28;20056;-88
2022/06/05 04:18:45;;;;;;;28.50;15.48;;;11.30;99.90;;;;;;5085786;28;20052;-88
2022/06/05 04:21:20;;;;;;;24.33;15.02;;;11.30;99.90;;;;;;5090958;28;20058;-88
2022/06/05 04:23:46;;;;;;;28.15;15.48;;;11.40;99.90;;;;;;5094715;28;20607;-88
2022/06/05 04:26:14;;;;;;;33.22;16.58;;;11.40;99.90;;;;;;5068991;28;20097;-89
2022/06/05 04:28:40;;;;;;;29.70;17.40;;;11.50;99.90;;;;;;5085217;28;20055;-90
2022/06/05 04:31:17;;;;;;;23.88;15.68;;;11.60;99.90;;;;;;5093672;28;20044;-88
2022/06/05 04:33:43;;;;;;;27.05;16.20;;;11.60;99.90;;;;;;5097935;28;20055;-93
2022/06/05 04:36:09;;;;;;;23.83;16.00;;;11.70;99.90;;;;;;5041140;28;20032;-88
2022/06/05 04:38:34;;;;;;;24.73;14.95;;;11.80;99.90;;;;;;5074510;28;20047;-88
2022/06/05 04:41:00;;;;;;;22.75;15.38;;;11.90;99.90;;;;;;5072703;28;20044;-88
2022/06/05 04:43:26;;;;;;;27.25;15.35;;;12.00;99.90;;;;;;5044776;28;20082;-89
2022/06/05 04:45:52;;;;;;;27.95;15.00;;;12.10;99.90;;;;;;5060283;28;20071;-90
2022/06/05 04:48:17;;;;;;;23.63;16.27;;;12.20;99.90;;;;;;5075335;28;20144;-88
2022/06/05 04:50:43;;;;;;;24.38;15.63;;;12.30;99.90;;;;;;5086033;28;20097;-88
2022/06/05 04:53:09;;;;;;;22.00;14.85;;;12.30;99.90;;;;;;5059580;28;20044;-88
2022/06/05 04:55:40;;;;;;;21.25;14.90;;;12.40;99.90;;;;;;5088801;28;20060;-91
2022/06/05 04:58:13;;;;;;;22.48;15.13;;;12.50;99.90;;;;;;5090977;28;20062;-88
2022/06/05 05:00:40;;;;;;;21.00;14.68;;;12.60;99.90;;;;;;5073626;28;20043;-89
2022/06/05 05:03:31;;;;;;;20.50;14.60;;;12.70;99.90;;;;;;5079689;28;20048;-88
2022/06/05 05:06:19;;;;;;;27.17;15.77;;;12.80;99.90;;;;;;5066731;28;20421;-89
2022/06/05 05:08:50;;;;;;;24.40;15.40;;;12.80;99.90;;;;;;5073973;28;20056;-88
2022/06/05 05:11:22;;;;;;;21.05;15.18;;;12.90;99.90;;;;;;5080525;28;20133;-88
2022/06/05 05:13:53;;;;;;;23.55;14.63;;;13.00;99.90;;;;;;5062919;28;20096;-88
2022/06/05 05:16:21;;;;;;;21.67;15.65;;;13.10;99.90;;;;;;5062653;28;20048;-87
2022/06/05 05:19:00;;;;;;;22.83;14.80;;;13.10;99.90;;;;;;5072227;28;20071;-87
2022/06/05 05:21:33;;;;;;;20.60;13.32;;;13.20;99.90;;;;;;5072326;28;20044;-86
2022/06/05 05:24:04;;;;;;;20.95;14.90;;;13.30;99.90;;;;;;5079375;28;20787;-86
2022/06/05 05:26:32;;;;;;;20.38;14.85;;;13.40;99.90;;;;;;5066050;28;20036;-87
2022/06/05 05:29:02;;;;;;;22.10;15.55;;;13.50;99.90;;;;;;5085377;28;20048;-87
2022/06/05 05:31:34;;;;;;;22.92;14.80;;;13.50;99.90;;;;;;5086390;28;20044;-87
2022/06/05 05:34:00;;;;;;;21.05;14.63;;;13.70;99.90;;;;;;5085947;28;20497;-87
2022/06/05 05:36:33;;;;;;;21.02;15.25;;;13.70;99.90;;;;;;5064282;28;20048;-87
2022/06/05 05:44:51;;;;;;;20.50;14.20;;;14.00;99.90;;;;;;5083138;28;20040;-87
2022/06/05 05:47:30;;;;;;;21.42;14.13;;;14.10;99.90;;;;;;5068842;28;20082;-87
2022/06/05 05:50:13;;;;;;;18.17;13.77;;;14.20;99.90;;;;;;5078969;28;20052;-87
2022/06/05 05:52:42;;;;;;;18.73;13.80;;;14.20;99.90;;;;;;5066605;28;20128;-89
2022/06/05 05:55:19;;;;;;;18.92;13.93;;;14.40;99.90;;;;;;5081269;28;20059;-88
2022/06/05 05:57:51;;;;;;;19.48;13.52;;;14.40;99.90;;;;;;5076561;28;20044;-87
2022/06/05 06:00:19;;;;;;;17.23;13.73;;;14.50;99.90;;;;;;5069832;28;20044;-91
2022/06/05 06:02:50;;;;;;;21.90;14.02;;;14.60;99.90;;;;;;5057599;28;20044;-91
2022/06/05 06:05:35;;;;;;;;;;;;;;;;;;;;;
2022/06/05 06:08:07;;;;;;;18.67;13.70;;;14.70;99.90;;;;;;5082395;28;20056;-91
2022/06/05 06:10:38;;;;;;;19.27;13.77;;;14.80;99.90;;;;;;5079275;28;20055;-92
2022/06/05 06:13:06;;;;;;;19.90;13.63;;;14.80;99.90;;;;;;5046084;28;20047;-89
2022/06/05 06:15:42;;;;;;;20.13;13.35;;;15.00;99.90;;;;;;5067629;28;20047;-89
2022/06/05 06:18:12;;;;;;;20.23;14.35;;;15.00;99.90;;;;;;5064688;28;20049;-89
2022/06/05 06:20:46;;;;;;;18.58;13.63;;;15.20;99.90;;;;;;5063807;28;20159;-91
2022/06/05 06:23:12;;;;;;;18.13;13.75;;;15.30;99.90;;;;;;5047366;28;20040;-89
2022/06/05 06:25:38;;;;;;;18.85;13.18;;;15.40;99.90;;;;;;5080752;28;20048;-90
2022/06/05 06:28:07;;;;;;;19.45;14.43;;;15.60;99.90;;;;;;5074454;28;20048;-90
2022/06/05 06:30:36;;;;;;;16.88;13.60;;;15.70;99.90;;;;;;5076154;28;20079;-90
2022/06/05 06:33:03;;;;;;;18.52;13.90;;;15.80;99.90;;;;;;5048705;28;20093;-90
2022/06/05 06:35:34;;;;;;;20.55;13.85;;;15.90;99.90;;;;;;5062995;28;20052;-91
2022/06/05 06:38:03;;;;;;;18.85;14.38;;;16.00;99.90;;;;;;5049189;28;20048;-91
2022/06/05 06:40:34;;;;;;;20.75;13.70;;;16.20;99.90;;;;;;5051673;28;20714;-90
2022/06/05 06:43:03;;;;;;;17.08;12.75;;;16.30;99.90;;;;;;5074532;28;20047;-93
2022/06/05 06:45:47;;;;;;;16.48;12.75;;;16.50;99.90;;;;;;5060137;28;20051;-91
2022/06/05 06:48:13;;;;;;;19.88;13.15;;;16.60;99.90;;;;;;5074049;28;20124;-90
2022/06/05 06:50:41;;;;;;;14.75;11.70;;;16.80;99.90;;;;;;5049515;28;20508;-85
2022/06/05 06:53:09;;;;;;;14.98;12.35;;;17.00;99.90;;;;;;5054883;28;20114;-85
2022/06/05 06:55:39;;;;;;;14.90;12.43;;;17.10;99.90;;;;;;5072188;28;20097;-85
2022/06/05 06:58:08;;;;;;;15.10;12.15;;;17.30;99.90;;;;;;5068582;28;20131;-85
2022/06/05 07:00:36;;;;;;;14.45;12.30;;;17.40;99.90;;;;;;5077035;28;20048;-85
2022/06/05 07:03:02;;;;;;;14.07;11.90;;;17.60;99.90;;;;;;5085305;28;20068;-84
2022/06/05 07:05:30;;;;;;;16.17;11.75;;;17.90;99.90;;;;;;5072425;28;20497;-85
2022/06/05 07:08:07;;;;;;;14.60;11.30;;;18.10;99.90;;;;;;5056510;28;20135;-85
2022/06/05 07:10:32;;;;;;;13.77;11.18;;;18.40;99.90;;;;;;5096796;28;20048;-85
2022/06/05 07:12:58;;;;;;;14.98;11.48;;;18.60;99.90;;;;;;5084410;28;20056;-85
2022/06/05 07:15:40;;;;;;;15.35;10.75;;;18.90;99.90;;;;;;5073843;28;20040;-85
2022/06/05 07:18:09;;;;;;;12.85;10.35;;;19.00;99.90;;;;;;5073085;28;20114;-85
2022/06/05 07:20:39;;;;;;;11.38;10.15;;;19.30;99.90;;;;;;5082265;28;20470;-86
2022/06/05 07:23:06;;;;;;;10.57;9.38;;;19.60;99.90;;;;;;5074621;28;20104;-85
2022/06/05 07:25:33;;;;;;;12.40;9.88;;;19.80;99.90;;;;;;5089608;28;20044;-85
2022/06/05 07:28:02;;;;;;;9.95;8.95;;;20.00;99.90;;;;;;5049630;28;20070;-85
2022/06/05 07:30:31;;;;;;;10.02;9.02;;;20.20;99.90;;;;;;5082217;28;20045;-85
2022/06/05 07:32:59;;;;;;;10.70;9.60;;;20.30;99.90;;;;;;5090359;28;20066;-85
2022/06/05 07:35:34;;;;;;;11.55;9.00;;;20.50;99.90;;;;;;5057043;28;20125;-86
2022/06/05 07:38:00;;;;;;;9.88;8.88;;;20.70;99.90;;;;;;5052838;28;20055;-85
2022/06/05 07:40:27;;;;;;;11.75;8.55;;;20.80;99.90;;;;;;5063041;28;20052;-85
2022/06/05 07:42:53;;;;;;;11.68;8.25;;;20.90;98.60;;;;;;5057148;28;20060;-87
2022/06/05 07:45:19;;;;;;;10.23;8.43;;;21.00;97.50;;;;;;5073235;28;20048;-85
2022/06/05 07:47:45;;;;;;;13.15;8.25;;;21.20;95.80;;;;;;5073411;28;20508;-85
2022/06/05 07:50:13;;;;;;;10.02;7.63;;;21.40;94.50;;;;;;5056349;28;20071;-85
2022/06/05 07:55:24;;;;;;;10.95;8.60;;;22.00;91.90;;;;;;5069954;28;20511;-84
2022/06/05 07:57:50;;;;;;;8.63;7.72;;;22.20;88.70;;;;;;5066277;28;20043;-84
2022/06/05 08:00:16;;;;;;;11.02;7.07;;;22.30;86.60;;;;;;5050549;28;20573;-84
2022/06/05 08:02:42;;;;;;;8.93;7.60;;;22.60;83.10;;;;;;5064918;28;20052;-85
2022/06/05 08:05:11;;;;;;;9.40;7.72;;;22.70;81.40;;;;;;5083344;28;20044;-86
2022/06/05 08:07:38;;;;;;;9.15;7.22;;;22.70;79.20;;;;;;5069518;28;20129;-84
2022/06/05 08:10:05;;;;;;;11.48;7.25;;;22.80;78.00;;;;;;5072555;28;20478;-84
2022/06/05 08:12:34;;;;;;;9.82;7.25;;;22.80;77.90;;;;;;5073020;28;20036;-84
2022/06/05 08:15:04;;;;;;;9.82;6.97;;;22.80;75.00;;;;;;5072421;28;20531;-86
2022/06/05 08:17:31;;;;;;;8.93;7.07;;;22.90;74.80;;;;;;5073106;28;20047;-84
2022/06/05 08:19:57;;;;;;;8.32;7.35;;;23.00;74.30;;;;;;5072260;28;20040;-84
2022/06/05 08:22:24;;;;;;;10.57;7.60;;;23.20;72.40;;;;;;5072189;28;20558;-85
2022/06/05 08:24:52;;;;;;;7.60;6.88;;;23.30;71.70;;;;;;5072407;28;20233;-84
2022/06/05 08:27:23;;;;;;;9.43;7.13;;;23.50;71.40;;;;;;5070271;28;20044;-84
2022/06/05 08:29:51;;;;;;;8.00;7.10;;;23.60;69.80;;;;;;5072919;28;20294;-84
2022/06/05 08:32:18;;;;;;;7.93;7.07;;;23.90;68.70;;;;;;5071109;28;20098;-84
2022/06/05 08:34:44;;;;;;;8.75;6.55;;;24.20;67.90;;;;;;5069254;28;20048;-84
2022/06/05 08:43:01;;;;;;;7.55;6.75;;;24.80;63.80;;;;;;5058095;28;20545;-85
2022/06/05 08:46:12;;;;;;;6.75;6.05;;;24.90;62.70;;;;;;5080465;28;20040;-84
2022/06/05 08:48:58;;;;;;;10.98;7.40;;;24.80;59.30;;;;;;5072562;28;20142;-84
2022/06/05 08:51:33;;;;;;;11.00;7.75;;;24.50;60.60;;;;;;5068732;28;20409;-84
2022/06/05 08:54:33;;;;;;;9.25;7.07;;;24.20;61.30;;;;;;5072693;28;20052;-84
2022/06/05 08:57:05;;;;;;;7.45;6.50;;;23.90;61.20;;;;;;5070698;28;20047;-84
2022/06/05 08:59:52;;;;;;;8.05;6.88;;;23.70;63.70;;;;;;5055357;28;20087;-84
2022/06/05 09:02:56;;;;;;;8.45;7.28;;;23.80;63.40;;;;;;5055179;28;20047;-85
2022/06/05 09:05:27;;;;;;;7.95;6.53;;;23.90;62.70;;;;;;4971810;28;20482;-84
2022/06/05 09:07:57;;;;;;;8.20;6.25;;;24.00;63.60;;;;;;5056534;28;20044;-84
2022/06/05 09:10:37;;;;;;;7.38;6.55;;;24.30;64.00;;;;;;5081298;28;20059;-84
2022/06/05 09:13:18;;;;;;;9.10;6.43;;;24.80;63.10;;;;;;5083350;28;20070;-84
2022/06/05 09:16:05;;;;;;;8.98;6.60;;;25.30;61.30;;;;;;5080206;28;20131;-84
2022/06/05 09:18:37;;;;;;;8.27;6.60;;;25.90;60.20;;;;;;5073844;28;20048;-85
2022/06/05 09:21:17;;;;;;;6.90;6.10;;;26.40;57.20;;;;;;5089240;28;20079;-84
2022/06/05 09:24:02;;;;;;;7.53;6.30;;;26.60;55.40;;;;;;5070514;28;20511;-84
2022/06/05 09:27:01;;;;;;;8.80;6.30;;;26.90;55.10;;;;;;5088740;28;20048;-85
2022/06/05 09:29:47;;;;;;;7.88;6.00;;;27.10;54.40;;;;;;5082914;28;20122;-84
2022/06/05 09:33:01;;;;;;;7.15;6.45;;;27.20;53.30;;;;;;5090181;28;20052;-85
2022/06/05 09:35:46;;;;;;;6.95;6.35;;;27.40;52.60;;;;;;5082692;28;20048;-85
2022/06/05 09:38:47;;;;;;;7.32;6.20;;;27.60;52.10;;;;;;5064178;28;20052;-86
2022/06/05 09:41:37;;;;;;;6.60;5.95;;;27.90;49.80;;;;;;5057242;28;20402;-85
2022/06/05 09:44:25;;;;;;;7.07;5.85;;;27.90;50.90;;;;;;5092552;28;20048;-85
2022/06/05 09:46:52;;;;;;;9.55;7.05;;;27.90;49.70;;;;;;5085871;28;20046;-85
2022/06/05 09:49:41;;;;;;;10.25;6.65;;;28.00;51.00;;;;;;5074564;28;20135;-84
2022/06/05 09:52:16;;;;;;;9.55;5.65;;;28.10;50.20;;;;;;5077203;28;20122;-84
2022/06/05 09:54:52;;;;;;;9.43;5.75;;;28.20;50.00;;;;;;5061099;28;20052;-85
2022/06/05 10:00:24;;;;;;;6.30;5.70;;;28.20;49.40;;;;;;5096590;28;20060;-86
2022/06/05 10:02:50;;;;;;;7.55;5.32;;;28.30;48.60;;;;;;5079443;28;20474;-85
2022/06/05 10:05:31;;;;;;;6.47;5.55;;;28.50;48.80;;;;;;5062194;28;20052;-84
2022/06/05 10:08:19;;;;;;;6.07;5.47;;;28.80;47.40;;;;;;5082513;28;20412;-82
2022/06/05 10:10:46;;;;;;;8.68;6.45;;;29.20;47.80;;;;;;5082928;28;20047;-82
2022/06/05 10:13:50;;;;;;;8.02;5.80;;;29.40;46.20;;;;;;5071517;28;20129;-81
2022/06/05 10:16:45;;;;;;;6.75;6.05;;;29.60;45.90;;;;;;5092833;28;20035;-83
2022/06/05 10:19:10;;;;;;;6.30;5.70;;;29.50;44.70;;;;;;5094674;28;20476;-82
2022/06/05 10:21:51;;;;;;;9.82;5.47;;;29.20;45.70;;;;;;5084916;28;20047;-84
2022/06/05 10:24:20;;;;;;;7.63;5.75;;;28.80;45.70;;;;;;5087108;28;20040;-86
2022/06/05 10:26:48;;;;;;;9.18;5.82;;;28.60;45.60;;;;;;5058994;28;20036;-85
2022/06/05 10:29:26;;;;;;;7.20;5.32;;;28.40;45.60;;;;;;5077046;28;20052;-85
2022/06/05 10:31:54;;;;;;;6.82;6.22;;;28.00;46.20;;;;;;5084695;28;20044;-84
2022/06/05 10:34:41;;;;;;;7.18;5.72;;;27.60;46.80;;;;;;5086874;28;20098;-87
2022/06/05 10:37:28;;;;;;;6.07;5.47;;;27.40;47.90;;;;;;5060697;28;20044;-84
2022/06/05 10:40:17;;;;;;;6.63;5.18;;;27.10;49.60;;;;;;5057890;28;20060;-84
2022/06/05 10:42:54;;;;;;;9.07;5.85;;;27.00;50.00;;;;;;5082978;28;20054;-84
2022/06/05 10:45:20;;;;;;;6.53;5.45;;;26.90;49.30;;;;;;5082306;28;20070;-86
2022/06/05 10:48:08;;;;;;;5.88;5.18;;;26.80;51.00;;;;;;5088133;28;20036;-84
2022/06/05 10:51:03;;;;;;;7.53;5.47;;;26.70;50.90;;;;;;5070538;28;20451;-85
2022/06/05 10:53:42;;;;;;;6.38;5.22;;;26.70;51.50;;;;;;5062247;28;20056;-84
2022/06/05 10:56:17;;;;;;;10.40;6.22;;;26.70;50.60;;;;;;5059787;28;20081;-84
2022/06/05 10:59:08;;;;;;;9.13;5.25;;;26.80;50.50;;;;;;5068934;28;20047;-85
2022/06/05 11:01:45;;;;;;;6.95;5.53;;;27.30;50.60;;;;;;5081362;28;20082;-84
2022/06/05 11:04:38;;;;;;;8.82;4.90;;;27.60;48.90;;;;;;5070725;28;20480;-84
2022/06/05 11:07:37;;;;;;;7.40;4.72;;;27.90;49.00;;;;;;5093468;28;20043;-84
2022/06/05 11:13:40;;;;;;;5.45;4.80;;;28.00;47.90;;;;;;5072642;28;20062;-82
2022/06/05 11:16:26;;;;;;;6.32;4.63;;;28.00;47.80;;;;;;5051905;28;20048;-83
2022/06/05 11:18:57;;;;;;;8.40;5.13;;;28.10;49.00;;;;;;5063754;28;20120;-81
2022/06/05 11:21:26;;;;;;;5.07;4.68;;;28.10;48.90;;;;;;5067354;28;20044;-83
2022/06/05 11:23:54;;;;;;;7.25;4.63;;;28.10;48.30;;;;;;5043158;28;20485;-82
2022/06/05 11:26:41;;;;;;;5.93;5.00;;;28.30;48.50;;;;;;5045693;28;20405;-84
2022/06/05 11:29:13;;;;;;;6.82;5.68;;;28.40;47.50;;;;;;5072482;28;20405;-85
2022/06/05 11:32:03;;;;;;;13.70;5.45;;;28.30;47.60;;;;;;5066411;28;20080;-84
2022/06/05 11:34:46;;;;;;;7.30;5.50;;;28.00;47.80;;;;;;5042860;28;20139;-85
2022/06/05 11:37:21;;;;;;;5.38;4.38;;;27.60;47.50;;;;;;5055701;28;20072;-84
2022/06/05 11:39:59;;;;;;;5.40;4.75;;;27.30;46.40;;;;;;5057840;28;20959;-84
2022/06/05 11:43:10;;;;;;;6.53;5.28;;;27.00;47.70;;;;;;5066974;28;20044;-85
2022/06/05 11:46:20;;;;;;;6.20;5.10;;;26.80;48.60;;;;;;5041609;28;20088;-84
2022/06/05 11:49:12;;;;;;;6.07;4.72;;;26.70;49.70;;;;;;5032352;28;20052;-85
2022/06/05 11:52:14;;;;;;;6.03;4.80;;;26.80;50.00;;;;;;5041370;28;20036;-86
2022/06/05 11:54:40;;;;;;;7.88;5.15;;;27.00;49.50;;;;;;5050996;28;20052;-85
2022/06/05 11:57:14;;;;;;;5.72;4.88;;;27.10;49.00;;;;;;5052741;28;20039;-84
2022/06/05 11:59:51;;;;;;;5.18;4.65;;;27.40;49.10;;;;;;5053827;28;20147;-84
2022/06/05 12:02:48;;;;;;;5.25;4.75;;;27.40;49.00;;;;;;5054395;28;20047;-84
2022/06/05 12:05:14;;;;;;;6.50;4.43;;;27.20;47.90;;;;;;5042212;28;20393;-82
2022/06/05 12:07:40;;;;;;;5.80;4.95;;;27.10;49.00;;;;;;5050412;28;20052;-82
2022/06/05 12:10:27;;;;;;;5.13;4.63;;;27.10;49.90;;;;;;5061338;28;20514;-82
2022/06/05 12:13:20;;;;;;;7.93;5.18;;;27.10;49.40;;;;;;5067749;28;20048;-82
2022/06/05 12:16:06;;;;;;;6.32;5.45;;;27.10;50.30;;;;;;5060681;28;20413;-82
2022/06/05 12:18:37;;;;;;;7.15;5.30;;;27.20;49.80;;;;;;5088451;28;20040;-83
2022/06/05 12:21:15;;;;;;;7.03;4.63;;;27.20;49.10;;;;;;5064523;28;20082;-81
2022/06/05 12:24:07;;;;;;;6.97;4.90;;;27.20;49.50;;;;;;5052129;28;20036;-82
2022/06/05 12:27:04;;;;;;;6.40;4.93;;;27.10;49.80;;;;;;5070312;28;20049;-86
2022/06/05 12:29:54;;;;;;;8.13;5.65;;;27.00;50.20;;;;;;5079467;28;20166;-84
2022/06/05 12:32:35;;;;;;;6.60;5.50;;;26.70;49.00;;;;;;5075384;28;20095;-85
2022/06/05 12:35:35;;;;;;;5.78;5.25;;;26.50;49.30;;;;;;5081681;28;20131;-84
2022/06/05 12:38:28;;;;;;;5.78;5.28;;;26.20;50.10;;;;;;5072445;28;20048;-84
2022/06/05 12:41:00;;;;;;;7.38;5.03;;;26.10;50.70;;;;;;5069944;28;20400;-84
2022/06/05 12:44:03;;;;;;;6.50;5.43;;;25.90;50.70;;;;;;5087670;28;20044;-84
2022/06/05 12:47:00;;;;;;;8.48;5.95;;;25.90;51.70;;;;;;5086294;28;20083;-84
2022/06/05 12:49:54;;;;;;;9.32;5.63;;;25.80;51.30;;;;;;5087365;28;20074;-86
2022/06/05 12:52:37;;;;;;;5.93;5.32;;;25.90;51.50;;;;;;5066711;28;20044;-84
2022/06/05 12:55:16;;;;;;;5.68;5.18;;;25.90;52.10;;;;;;5091270;28;20481;-84
2022/06/05 12:57:45;;;;;;;5.82;5.00;;;26.00;51.50;;;;;;5093179;28;20043;-84
2022/06/05 13:00:26;;;;;;;5.57;5.00;;;26.00;51.60;;;;;;5061948;28;20128;-85
2022/06/05 13:02:59;;;;;;;7.93;5.90;;;26.00;52.30;;;;;;5072524;28;20390;-84
2022/06/05 13:05:58;;;;;;;7.30;5.50;;;26.10;52.30;;;;;;5075773;28;20500;-85
2022/06/05 13:08:46;;;;;;;5.78;5.18;;;26.10;52.20;;;;;;5089033;28;20059;-84
2022/06/05 13:11:23;;;;;;;5.78;4.70;;;26.20;52.30;;;;;;5067272;28;20127;-84
2022/06/05 13:13:55;;;;;;;9.25;4.90;;;26.30;51.30;;;;;;5070380;28;20040;-85
2022/06/05 13:16:42;;;;;;;7.10;5.00;;;26.40;51.40;;;;;;5078017;28;20048;-84
2022/06/05 13:19:26;;;;;;;5.88;4.97;;;26.70;51.50;;;;;;5074673;28;20091;-84
2022/06/05 13:22:23;;;;;;;7.50;4.57;;;27.00;51.50;;;;;;5088999;28;20037;-84
2022/06/05 13:25:20;;;;;;;7.07;4.70;;;27.40;49.80;;;;;;5066719;28;20075;-84
2022/06/05 13:28:13;;;;;;;5.35;4.85;;;27.60;48.90;;;;;;5053685;28;20083;-84
2022/06/05 13:30:49;;;;;;;5.53;4.60;;;27.80;48.40;;;;;;5089312;28;20545;-87
2022/06/05 13:33:29;;;;;;;5.10;4.60;;;27.80;46.90;;;;;;5092272;28;20036;-84
2022/06/05 13:36:09;;;;;;;7.63;4.00;;;27.80;46.50;;;;;;5075047;28;20081;-85
2022/06/05 13:38:50;;;;;;;5.00;4.60;;;27.90;47.70;;;;;;5075527;28;20093;-84
2022/06/05 13:41:31;;;;;;;6.60;3.95;;;28.20;47.50;;;;;;5076761;28;20047;-82